Ευχαριστούμε που συμβάλλετε στη διατήρηση της σελίδας μας.

Thank you for your donations, it really helps to maintain the page.


Στατιστικά Καιρού & Άλλα..









Δείκτης Πυρκαγιάς (FWI)

Καστελόκαμπος Ρίον more information Kastelokampos Rion


Κάμερα Ρομανού more information Romanos Cam


Ραντάρ Κεραυνών more information blitzortung!


Ραντάρ Βροχής more information rain snow radar


Επισκεφθείτε άλλες ιστοσελίδες καιρού μας:

Meteopatras.Eu in
Euweather NetworkMeteopatras.Eu in Euweather Network

Weather CloudWeather Cloud

PWS WeatherPWS Weather

Awekas NetWeather data from station Patra-Ketx

WunderGroundWeather data from station Patra-Ketx




Ιδιοκτησία και Επίβλεψη : Μουλάς Αντρέας

 Πάτρα, Ελλάδα - Γ.Πλάτος : 38°14'21" Β - Γ.Μήκος : 21°45'5" Α - Υψόμετρο : 56μ

Κοντινές Αναφορές METAR

   
LGRX - Araxos
Ενημερώθηκε: 18-08-2019 20:20
Κυρίως Αίθριος  
Κυρίως Αίθριος  
   Άνεμος: Άπνοια
Άνεμος: Άπνοια
Θερμοκρασία: 27°C
Δείκτης θερμότητας: 29°C
Σημείο Δρόσου: 22°C
Υγρασία: 74%
Βαρόμετρο: 1014 hPa
Σύννεφα: Κυρίως Αίθριος
Ορατότητα: More than 10 km
Λεπτομέρειες Σύννεφου: Κυρίως Αίθριος 2000 ft
LGRX 181720Z 00000KT 9999 FEW020 27/22 Q1014
LGAD - Andravida
Ενημερώθηκε: 18-08-2019 20:20
Κυρίως Αίθριος  
Κυρίως Αίθριος  
   Άνεμος: Άπνοια
Άνεμος: Άπνοια
Θερμοκρασία: 26°C
Σημείο Δρόσου: 18°C
Υγρασία: 61%
Βαρόμετρο: 1014 hPa
Σύννεφα: Κυρίως Αίθριος
Ορατότητα: More than 10 km
Λεπτομέρειες Σύννεφου: Κυρίως Αίθριος 2000 ft
LGAD 181720Z 00000KT 9999 FEW020 26/18 Q1014
LGZA - Zakinthos
Ενημερώθηκε: 18-08-2019 20:20
Αίθριος  
Αίθριος  
   Άνεμος: Άπνοια
Άνεμος: Άπνοια
Θερμοκρασία: 28°C
Δείκτης θερμότητας: 29°C
Σημείο Δρόσου: 19°C
Υγρασία: 58%
Βαρόμετρο: 1014 hPa
Ορατότητα: More than 10 km
Λεπτομέρειες Σύννεφου: Αίθριος
LGZA 181720Z 00000KT CAVOK 28/19 Q1014
LGKF - Kefallinia
Ενημερώθηκε: 18-08-2019 19:50
Αίθριος  
Αίθριος  
   Άνεμος: ΔΒΔ 7.4 km/h
Άνεμος: ΔΒΔ 7.4 km/h
Θερμοκρασία: 28°C
Δείκτης θερμότητας: 31°C
Σημείο Δρόσου: 23°C
Υγρασία: 74%
Βαρόμετρο: 1014 hPa
Ορατότητα: More than 10 km
Λεπτομέρειες Σύννεφου: Αίθριος
LGKF 181650Z 30004KT CAVOK 28/23 Q1014
LGPZ - Preveza
Ενημερώθηκε: 18-08-2019 20:20
Αίθριος  
Αίθριος  
   Άνεμος: Δύση 16.7 km/h
Άνεμος: Δύση 16.7 km/h
Θερμοκρασία: 26°C
Σημείο Δρόσου: 23°C
Υγρασία: 84%
Βαρόμετρο: 1015 hPa
Ορατότητα: More than 10 km
Λεπτομέρειες Σύννεφου: Αίθριος
LGPZ 181720Z 27009KT CAVOK 26/23 Q1015
LGKL - Kalamata
Ενημερώθηκε: 18-08-2019 20:20
Μερικώς Νεφελώδης  
Μερικώς Νεφελώδης  
   Άνεμος: Άπνοια
Άνεμος: Άπνοια
Θερμοκρασία: 24°C
Σημείο Δρόσου: 19°C
Υγρασία: 74%
Βαρόμετρο: 1015 hPa
Σύννεφα: Μερικώς Νεφελώδης
Ορατότητα: More than 10 km
Λεπτομέρειες Σύννεφου: Κυρίως Αίθριος 2000 ft,
Μερικώς Νεφελώδης 3500 ft
LGKL 181720Z 00000KT 9999 FEW020 SCT035 24/19 Q1015
LGKR - Kerkyra
Ενημερώθηκε: 18-08-2019 20:20
Αίθριος  
Αίθριος  
   Άνεμος: ΝΔ 7.4 km/h
Άνεμος: ΝΔ 7.4 km/h
Θερμοκρασία: 28°C
Δείκτης θερμότητας: 28°C
Σημείο Δρόσου: 17°C
Υγρασία: 51%
Βαρόμετρο: 1014 hPa
Ορατότητα: More than 10 km
Λεπτομέρειες Σύννεφου: Αίθριος
LGKR 181720Z 22004KT CAVOK 28/17 Q1014 NOSIG
LGIO - Iwannina
Ενημερώθηκε: 18-08-2019 20:20
Κυρίως Αίθριος  
Κυρίως Αίθριος  
   Άνεμος: Δύση 9.3 km/h
Άνεμος: Δύση 9.3 km/h
Θερμοκρασία: 26°C
Σημείο Δρόσου: 13°C
Υγρασία: 45%
Βαρόμετρο: 1016 hPa
Σύννεφα: Κυρίως Αίθριος
Ορατότητα: More than 10 km
Λεπτομέρειες Σύννεφου: Κυρίως Αίθριος 3500 ft
LGIO 181720Z 26005KT 9999 FEW035 26/13 Q1016
LGPZ - Leykada
Ενημερώθηκε: 18-08-2019 20:20
Αίθριος  
Αίθριος  
   Άνεμος: Δύση 16.7 km/h
Άνεμος: Δύση 16.7 km/h
Θερμοκρασία: 26°C
Σημείο Δρόσου: 23°C
Υγρασία: 84%
Βαρόμετρο: 1015 hPa
Ορατότητα: More than 10 km
Λεπτομέρειες Σύννεφου: Αίθριος
LGPZ 181720Z 27009KT CAVOK 26/23 Q1015
LGEL - Elefsina
Ενημερώθηκε: 18-08-2019 20:20
Αίθριος  
Αίθριος  
   Άνεμος: Βοράς 7.4 km/h
Άνεμος: Βοράς 7.4 km/h
Θερμοκρασία: 28°C
Σημείο Δρόσου: 9°C
Υγρασία: 30%
Βαρόμετρο: 1014 hPa
Ορατότητα: More than 10 km
Λεπτομέρειες Σύννεφου: Αίθριος
LGEL 181720Z 36004KT CAVOK 28/09 Q1014
LGKC - Kythira
Ενημερώθηκε: 18-08-2019 19:50
Κυρίως Αίθριος  
Κυρίως Αίθριος  
   Άνεμος: ΑΒΑ 9.3 km/h
Άνεμος: ΑΒΑ 9.3 km/h
Θερμοκρασία: 25°C
Σημείο Δρόσου: 19°C
Υγρασία: 69%
Βαρόμετρο: 1017 hPa
Σύννεφα: Κυρίως Αίθριος
Ορατότητα: More than 10 km
Λεπτομέρειες Σύννεφου: Κυρίως Αίθριος 3000 ft
LGKC 181650Z 06005KT 9999 FEW030 25/19 Q1017
LGIR - Hraklio
Ενημερώθηκε: 18-08-2019 20:20
Κυρίως Αίθριος  
Κυρίως Αίθριος  
   Άνεμος: ΒΒΔ 31.5 km/h
Άνεμος: ΒΒΔ 31.5 km/h
Θερμοκρασία: 26°C
Σημείο Δρόσου: 15°C
Υγρασία: 51%
Βαρόμετρο: 1013 hPa
Σύννεφα: Κυρίως Αίθριος
Ορατότητα: More than 10 km
Λεπτομέρειες Σύννεφου: Κυρίως Αίθριος 2000 ft
LGIR 181720Z 33017KT 9999 FEW020 26/15 Q1013 NOSIG

Script developed by  Saratoga-weather.org Προσαρμοσμένος για το πρότυπο του  Weerstation Leuven

Μπορείτε να βρείτε πληροφορίες καιρού μας και σε:

European Weather Network

WeatherCloud

Weather Underground

Δύκτιο Σταθμών Ελλάδας

AWEKAS

HAMweather, WeatherForYou, PWS Weather

MeteoPatras.Eu